O'neill, Nebraska
Current Conditions -  °F | °C
As of 1:15 PM on Friday 28 Nov 2014 (Local Time) from KONL Reporting Station
Clear Clear  
Wind Chill: 68°   Ceiling: Unl
Heat Index: 68°   Visibility: 10mi
Dew Point: 29°   Wind: 15mph
Humidity: 23%   Direction: 280°W
Pressure: 29.62"   Gusts: 24mph
Location:  42.47°N, 98.68°W
Report Text: KONL 281915Z AUTO 28013G21KT 10SM CLR 20/M02 A2962 RMK AO2 T02011016
Loading
Personal Weather Stations






























Interactive Weather Map New forecast layout! Learn more

10-Day Weather Forecast

Advertisements
Track Severe Weather on mobile